Time;durP1;ratioP1;P1;durP2;ratioP2;P2;SDS_P1;SDS_P2;PMS_P1;PMS_P2;Temp;Humidity;BMP_temperature;BMP_pressure;BME280_temperature;BME280_humidity;BME280_pressure;Samples;Min_cycle;Max_cycle;Signal;HPM_P1;HPM_P2
2023/06/06 00:02:19;;;;;;;11.73;6.40;;;;;;;14.44;66.44;102050.44;5036515;28;20051;-67
2023/06/06 00:04:49;;;;;;;10.57;5.10;;;;;;;14.37;66.87;102044.53;5036357;28;20036;-67
2023/06/06 00:07:16;;;;;;;10.13;4.88;;;;;;;14.37;67.12;102049.00;5054209;28;20029;-68
2023/06/06 00:09:42;;;;;;;9.60;5.05;;;;;;;14.35;67.48;102046.41;5036103;28;20470;-67
2023/06/06 00:12:12;;;;;;;8.70;4.93;;;;;;;14.44;67.58;102045.13;5054057;28;20079;-69
2023/06/06 00:14:40;;;;;;;8.90;5.38;;;;;;;14.36;67.48;102052.63;5053613;28;20059;-67
2023/06/06 00:17:06;;;;;;;9.00;5.15;;;;;;;14.24;67.77;102038.06;5036002;28;20025;-67
2023/06/06 00:19:32;;;;;;;7.75;4.80;;;;;;;14.32;67.53;102046.56;5019207;28;20024;-67
2023/06/06 00:21:58;;;;;;;8.07;4.70;;;;;;;14.23;67.54;102031.88;5035806;28;20028;-67
2023/06/06 00:24:24;;;;;;;8.30;4.82;;;;;;;14.13;69.49;102041.25;5053555;28;20021;-67
2023/06/06 00:26:50;;;;;;;7.90;4.78;;;;;;;14.09;68.69;102044.97;5035578;28;20106;-66
2023/06/06 00:29:15;;;;;;;7.80;4.97;;;;;;;14.11;68.85;102041.28;5053947;28;20052;-67
2023/06/06 00:31:40;;;;;;;8.35;4.90;;;;;;;14.08;68.53;102029.94;5036241;28;20029;-67
2023/06/06 00:34:06;;;;;;;11.77;5.53;;;;;;;14.09;69.18;102040.50;5036349;28;20103;-67
2023/06/06 00:36:31;;;;;;;9.43;5.25;;;;;;;14.04;68.76;102036.34;5054119;28;20028;-66
2023/06/06 00:38:56;;;;;;;7.63;4.93;;;;;;;14.07;67.96;102026.41;5053259;28;20060;-66
2023/06/06 00:41:22;;;;;;;11.13;5.60;;;;;;;14.05;67.98;102027.41;5053376;28;20537;-67
2023/06/06 00:43:47;;;;;;;10.68;5.43;;;;;;;14.05;69.82;102035.41;5035701;28;20393;-66
2023/06/06 00:46:13;;;;;;;8.57;4.97;;;;;;;14.07;69.10;102041.53;5052728;28;20028;-66
2023/06/06 00:48:38;;;;;;;9.38;5.00;;;;;;;13.97;69.39;102033.94;5019784;28;20028;-67
2023/06/06 00:51:05;;;;;;;10.95;4.95;;;;;;;13.87;69.86;102029.97;5019350;28;20021;-66
2023/06/06 00:53:30;;;;;;;12.15;5.93;;;;;;;13.90;69.29;102036.94;5036003;28;20357;-66
2023/06/06 00:55:57;;;;;;;10.30;5.45;;;;;;;13.84;69.42;102041.63;5053962;28;20035;-67
2023/06/06 00:58:23;;;;;;;12.20;6.70;;;;;;;13.83;69.35;102033.69;5053412;28;20024;-67
2023/06/06 01:00:48;;;;;;;12.50;5.78;;;;;;;13.79;70.06;102029.44;5036027;28;20167;-67
2023/06/06 01:03:14;;;;;;;8.30;5.03;;;;;;;13.93;68.98;102032.34;5035979;28;20025;-67
2023/06/06 01:05:40;;;;;;;8.85;5.40;;;;;;;13.78;70.41;102038.34;5019618;28;20029;-66
2023/06/06 01:08:07;;;;;;;6.75;4.90;;;;;;;13.77;69.57;102044.59;5053739;28;20604;-67
2023/06/06 01:10:34;;;;;;;8.75;5.10;;;;;;;13.64;69.92;102034.50;5035660;28;20021;-66
2023/06/06 01:13:11;;;;;;;8.02;5.53;;;;;;;13.71;69.39;102032.47;5036261;28;20033;-66
2023/06/06 01:15:42;;;;;;;10.20;5.63;;;;;;;13.69;70.00;102037.81;5035790;28;20467;-67
2023/06/06 01:18:08;;;;;;;9.23;5.78;;;;;;;13.66;70.20;102034.47;5019556;28;20032;-67
2023/06/06 01:20:34;;;;;;;12.27;5.40;;;;;;;13.52;70.54;102035.91;5035530;28;20485;-67
2023/06/06 01:23:00;;;;;;;10.38;5.32;;;;;;;13.61;71.19;102032.00;5035254;28;20024;-67
2023/06/06 01:25:26;;;;;;;12.85;5.93;;;;;;;13.57;69.97;102033.06;5035265;28;20465;-67
2023/06/06 01:27:55;;;;;;;8.68;5.03;;;;;;;13.62;70.24;102031.06;5035775;28;20032;-68
2023/06/06 01:30:25;;;;;;;8.85;5.88;;;;;;;13.50;71.60;102039.56;5036381;28;20029;-67
2023/06/06 01:33:06;;;;;;;14.55;6.13;;;;;;;13.51;71.81;102041.28;5018682;28;20055;-67
2023/06/06 01:36:06;;;;;;;10.55;5.78;;;;;;;13.55;70.97;102035.75;5053682;28;20128;-67
2023/06/06 01:38:37;;;;;;;12.93;5.10;;;;;;;13.53;70.60;102042.09;5033814;28;20048;-67
2023/06/06 01:41:03;;;;;;;12.75;6.63;;;;;;;13.45;71.02;102033.59;5035034;28;20470;-66
2023/06/06 01:43:30;;;;;;;10.55;6.35;;;;;;;13.41;71.96;102032.81;5051886;28;20024;-68
2023/06/06 01:45:56;;;;;;;12.57;6.63;;;;;;;13.36;72.49;102035.69;5035182;28;20497;-68
2023/06/06 01:48:24;;;;;;;9.77;5.70;;;;;;;13.30;71.50;102030.63;5018663;28;20112;-67
2023/06/06 01:50:50;;;;;;;11.57;6.15;;;;;;;13.31;71.81;102042.09;5035073;28;20025;-68
2023/06/06 01:53:15;;;;;;;12.50;6.03;;;;;;;13.25;72.72;102045.88;5035107;28;20485;-68
2023/06/06 01:55:41;;;;;;;12.32;6.57;;;;;;;13.23;72.38;102045.06;5035371;28;20071;-67
2023/06/06 01:58:07;;;;;;;10.20;6.22;;;;;;;13.19;73.06;102038.16;5051502;28;20082;-67
2023/06/06 02:00:33;;;;;;;11.25;6.90;;;;;;;13.07;73.22;102040.41;5035636;28;20503;-66
2023/06/06 02:02:58;;;;;;;11.05;6.05;;;;;;;13.03;73.17;102041.47;5053232;28;20025;-67
2023/06/06 02:05:23;;;;;;;11.60;6.90;;;;;;;12.97;73.28;102044.38;5034931;28;20039;-66
2023/06/06 02:07:49;;;;;;;10.05;6.22;;;;;;;12.95;73.32;102039.13;5052996;28;20029;-67
2023/06/06 02:10:15;;;;;;;11.43;6.82;;;;;;;12.89;73.00;102046.47;5035182;28;20036;-67
2023/06/06 02:12:40;;;;;;;9.48;6.72;;;;;;;12.82;73.80;102041.41;5018073;28;20021;-67
2023/06/06 02:15:07;;;;;;;15.02;6.75;;;;;;;12.86;73.57;102039.47;5034810;28;20021;-66
2023/06/06 02:17:32;;;;;;;12.60;6.32;;;;;;;12.92;73.36;102041.91;5018419;28;20029;-67
2023/06/06 02:19:58;;;;;;;9.70;6.35;;;;;;;12.80;73.53;102035.28;5035264;28;20029;-66
2023/06/06 02:22:24;;;;;;;12.00;6.38;;;;;;;12.76;73.84;102035.47;5056179;28;20040;-67
2023/06/06 02:24:52;;;;;;;11.38;6.40;;;;;;;12.74;73.53;102037.31;5039157;28;20100;-67
2023/06/06 02:27:19;;;;;;;10.88;6.25;;;;;;;12.85;73.73;102035.09;5023051;28;20025;-67
2023/06/06 02:29:45;;;;;;;10.88;6.53;;;;;;;12.62;73.59;102028.91;5022472;28;20075;-66
2023/06/06 02:32:10;;;;;;;13.00;6.85;;;;;;;12.62;73.15;102036.03;5038741;28;20032;-67
2023/06/06 02:34:36;;;;;;;9.05;6.35;;;;;;;12.56;73.51;102036.28;5022120;28;20033;-67
2023/06/06 02:37:06;;;;;;;11.25;6.70;;;;;;;12.51;73.80;102031.13;5055282;28;20027;-67
2023/06/06 02:39:31;;;;;;;10.95;6.95;;;;;;;12.61;73.90;102035.16;5039246;28;20053;-67
2023/06/06 02:41:57;;;;;;;11.90;6.75;;;;;;;12.62;74.35;102038.69;5056464;28;20031;-67
2023/06/06 02:44:22;;;;;;;12.13;6.20;;;;;;;12.54;74.33;102037.19;5038120;28;20024;-67
2023/06/06 02:46:47;;;;;;;11.90;7.25;;;;;;;12.51;74.23;102031.13;5022191;28;20056;-68
2023/06/06 02:49:13;;;;;;;11.63;6.90;;;;;;;12.51;73.71;102036.44;5056478;28;20064;-67
2023/06/06 02:51:38;;;;;;;11.73;6.38;;;;;;;12.50;73.91;102040.03;5056338;28;20469;-66
2023/06/06 02:54:04;;;;;;;10.75;6.57;;;;;;;12.51;74.10;102047.06;5038262;28;20025;-67
2023/06/06 02:56:29;;;;;;;9.20;5.95;;;;;;;12.42;74.65;102048.28;5038699;28;20017;-67
2023/06/06 02:58:55;;;;;;;15.95;6.53;;;;;;;12.47;74.81;102040.13;5038162;28;20029;-66
2023/06/06 03:01:21;;;;;;;14.70;7.43;;;;;;;12.38;74.94;102036.03;5056262;28;20115;-66
2023/06/06 03:03:47;;;;;;;12.32;6.90;;;;;;;12.45;74.96;102053.47;5056101;28;20037;-68
2023/06/06 03:06:15;;;;;;;13.70;6.95;;;;;;;12.36;74.95;102043.19;5038104;28;20058;-68
2023/06/06 03:08:43;;;;;;;14.05;6.72;;;;;;;12.21;74.98;102034.06;5038714;28;20028;-67
2023/06/06 03:11:09;;;;;;;11.27;7.18;;;;;;;12.41;74.84;102041.22;5056347;28;20154;-67
2023/06/06 03:13:35;;;;;;;11.90;6.85;;;;;;;12.41;74.20;102045.69;5037701;28;20103;-66
2023/06/06 03:16:01;;;;;;;12.13;7.00;;;;;;;12.30;75.26;102054.03;5036988;28;20513;-66
2023/06/06 03:18:26;;;;;;;10.57;7.22;;;;;;;12.26;75.05;102048.00;5036977;28;20028;-66
2023/06/06 03:20:51;;;;;;;12.88;7.53;;;;;;;12.27;74.79;102046.22;5036842;28;20025;-66
2023/06/06 03:23:17;;;;;;;11.00;7.35;;;;;;;12.20;74.77;102043.78;5036917;28;20021;-67
2023/06/06 03:25:44;;;;;;;12.48;7.35;;;;;;;12.21;75.24;102044.66;5036854;28;20031;-67
2023/06/06 03:28:12;;;;;;;13.85;7.10;;;;;;;12.31;74.92;102051.34;5036723;28;20025;-66
2023/06/06 03:30:38;;;;;;;11.23;6.80;;;;;;;12.23;75.41;102048.13;5053403;28;20155;-65
2023/06/06 03:33:07;;;;;;;11.30;6.00;;;;;;;12.20;75.79;102051.75;5036724;28;20100;-68
2023/06/06 03:35:33;;;;;;;11.75;7.40;;;;;;;12.15;75.02;102045.75;5037055;28;20029;-67
2023/06/06 03:38:02;;;;;;;12.13;7.35;;;;;;;12.18;75.19;102045.63;5036760;28;20056;-67
2023/06/06 03:40:27;;;;;;;15.23;7.25;;;;;;;12.14;75.49;102038.72;5054059;28;20029;-66
2023/06/06 03:42:53;;;;;;;10.52;6.90;;;;;;;12.11;75.26;102044.13;5020789;28;20013;-66
2023/06/06 03:45:20;;;;;;;11.40;7.22;;;;;;;12.20;75.08;102059.69;5034865;28;20025;-66
2023/06/06 03:47:45;;;;;;;13.85;7.38;;;;;;;12.09;75.37;102051.28;5017499;28;20171;-66
2023/06/06 03:50:11;;;;;;;12.60;7.32;;;;;;;12.20;75.30;102054.41;5001073;28;20100;-67
2023/06/06 03:52:38;;;;;;;14.95;6.63;;;;;;;12.29;74.60;102052.31;5017922;28;20462;-66
2023/06/06 03:55:03;;;;;;;12.45;7.30;;;;;;;12.14;75.07;102041.38;5012196;28;20037;-65
2023/06/06 03:57:29;;;;;;;12.20;7.15;;;;;;;12.19;76.00;102042.06;5015282;28;20026;-66
2023/06/06 03:59:55;;;;;;;11.77;7.35;;;;;;;12.11;75.04;102044.13;5022437;28;20588;-68
2023/06/06 04:02:20;;;;;;;12.57;7.78;;;;;;;12.20;75.00;102043.78;5001178;28;20374;-66
2023/06/06 04:04:50;;;;;;;16.55;7.35;;;;;;;12.28;76.19;102055.91;5023015;28;20034;-67
2023/06/06 04:07:16;;;;;;;15.32;7.47;;;;;;;12.27;74.90;102054.16;5006289;28;20464;-67
2023/06/06 04:09:41;;;;;;;13.93;7.43;;;;;;;12.62;74.84;102057.28;5015173;28;20022;-68
2023/06/06 04:12:08;;;;;;;14.48;7.05;;;;;;;12.93;73.28;102048.97;4997259;28;20029;-68
2023/06/06 04:14:34;;;;;;;12.43;7.65;;;;;;;12.52;74.20;102049.66;5006190;28;20096;-66
2023/06/06 04:17:01;;;;;;;13.73;7.55;;;;;;;12.39;74.02;102056.34;5016760;28;20025;-67
2023/06/06 04:19:27;;;;;;;12.02;7.65;;;;;;;12.62;73.16;102055.47;5016485;28;20124;-68
2023/06/06 04:21:52;;;;;;;10.25;7.18;;;;;;;12.37;74.34;102056.44;5033034;28;20056;-68
2023/06/06 04:24:17;;;;;;;11.93;7.47;;;;;;;12.37;75.12;102060.84;5016383;28;20433;-68
2023/06/06 04:26:43;;;;;;;13.57;8.00;;;;;;;12.51;74.64;102068.28;5032753;28;20021;-68
2023/06/06 04:29:08;;;;;;;15.15;7.93;;;;;;;12.53;74.16;102056.72;5032853;28;20094;-66
2023/06/06 04:31:35;;;;;;;18.20;9.50;;;;;;;12.57;73.68;102051.28;5016016;28;20032;-67
2023/06/06 04:34:01;;;;;;;14.38;7.55;;;;;;;12.54;74.15;102053.13;5016272;28;20021;-69
2023/06/06 04:36:26;;;;;;;10.75;7.07;;;;;;;12.51;73.51;102053.25;5033445;28;20451;-67
2023/06/06 04:38:52;;;;;;;15.52;7.97;;;;;;;12.70;73.13;102047.22;5032749;28;20083;-65
2023/06/06 04:41:20;;;;;;;11.48;7.30;;;;;;;12.79;73.34;102049.50;5011386;28;20427;-66
2023/06/06 04:43:49;;;;;;;17.15;7.65;;;;;;;13.25;70.91;102043.22;5008006;28;20033;-67
2023/06/06 04:46:21;;;;;;;11.48;6.82;;;;;;;13.33;70.63;102049.09;5016239;28;20029;-66
2023/06/06 04:48:48;;;;;;;;;;;;;;;13.34;70.29;102048.16;5017071;28;20029;-68
2023/06/06 04:51:14;;;;;;;32.53;10.00;;;;;;;13.29;70.11;102044.84;5010541;28;19917;-67
2023/06/06 04:53:43;;;;;;;17.88;7.00;;;;;;;13.66;70.03;102043.28;5033850;28;20022;-66
2023/06/06 04:56:10;;;;;;;11.45;7.50;;;;;;;13.23;70.22;102042.41;5028560;28;20374;-68
2023/06/06 04:58:35;;;;;;;33.50;8.02;;;;;;;13.28;70.76;102037.81;5013547;28;20029;-66
2023/06/06 05:01:01;;;;;;;62.58;10.52;;;;;;;13.39;70.30;102040.88;5013485;28;20033;-67
2023/06/06 05:03:27;;;;;;;66.00;10.43;;;;;;;13.26;71.12;102044.97;5012424;28;20502;-67
2023/06/06 05:05:53;;;;;;;35.22;9.20;;;;;;;13.91;68.46;102031.53;5013756;28;20918;-67
2023/06/06 05:08:19;;;;;;;113.47;30.73;;;;;;;13.81;69.00;102038.22;5014028;28;20021;-67
2023/06/06 05:10:44;;;;;;;30.38;12.40;;;;;;;13.97;68.48;102031.25;4996001;28;20026;-67
2023/06/06 05:13:10;;;;;;;21.00;8.30;;;;;;;13.65;69.17;102041.56;4980170;28;20097;-67
2023/06/06 05:15:35;;;;;;;16.75;9.23;;;;;;;13.82;69.24;102045.25;4979880;28;20068;-67
2023/06/06 05:18:01;;;;;;;13.60;7.88;;;;;;;13.93;68.35;102048.31;5025642;28;20049;-68
2023/06/06 05:20:26;;;;;;;16.92;7.65;;;;;;;13.64;69.18;102044.28;4995893;28;20025;-66
2023/06/06 05:22:51;;;;;;;13.90;7.63;;;;;;;14.23;68.03;102037.22;4995905;28;20022;-67
2023/06/06 05:25:17;;;;;;;13.45;7.40;;;;;;;14.39;66.55;102036.50;4979621;28;20029;-68
2023/06/06 05:27:42;;;;;;;14.07;7.90;;;;;;;14.37;66.75;102046.34;4995494;28;20025;-68
2023/06/06 05:30:08;;;;;;;10.85;6.72;;;;;;;14.55;65.12;102036.66;4995329;28;20034;-67
2023/06/06 05:32:33;;;;;;;15.90;8.32;;;;;;;14.27;66.15;102038.81;4995632;28;20374;-67
2023/06/06 05:35:01;;;;;;;12.48;7.25;;;;;;;14.51;65.08;102041.22;4995788;28;20080;-67
2023/06/06 05:37:28;;;;;;;11.88;7.75;;;;;;;14.76;65.18;102045.41;4995559;28;20033;-67
2023/06/06 05:39:53;;;;;;;12.98;6.78;;;;;;;14.51;65.42;102049.22;4995707;28;20049;-66
2023/06/06 05:42:18;;;;;;;13.23;7.65;;;;;;;14.82;63.31;102034.47;4995547;28;20017;-67
2023/06/06 05:44:44;;;;;;;13.02;7.68;;;;;;;14.41;65.89;102040.81;5021400;28;20500;-67
2023/06/06 05:47:09;;;;;;;18.30;8.35;;;;;;;14.75;63.96;102042.84;4995083;28;20119;-68
2023/06/06 05:49:35;;;;;;;15.57;8.25;;;;;;;14.99;63.56;102041.63;5012866;28;20112;-67
2023/06/06 05:52:01;;;;;;;14.18;7.20;;;;;;;14.67;63.62;102036.06;4978847;28;20121;-67
2023/06/06 05:54:26;;;;;;;12.20;7.50;;;;;;;14.58;66.03;102034.69;5013059;28;20034;-67
2023/06/06 05:56:56;;;;;;;16.45;6.85;;;;;;;15.00;64.23;102042.50;4978724;28;20084;-67
2023/06/06 05:59:21;;;;;;;12.25;6.80;;;;;;;15.08;62.79;102040.31;4995408;28;20096;-68
2023/06/06 06:01:49;;;;;;;15.88;7.32;;;;;;;15.58;60.95;102043.16;4995392;28;20022;-68
2023/06/06 06:04:16;;;;;;;12.45;7.05;;;;;;;15.60;61.97;102031.47;5016584;28;20037;-69
2023/06/06 06:06:46;;;;;;;13.10;6.90;;;;;;;15.77;61.25;102042.19;5022957;28;20052;-66
2023/06/06 06:09:12;;;;;;;13.85;7.13;;;;;;;15.73;60.85;102042.34;5012554;28;20060;-67
2023/06/06 06:11:37;;;;;;;15.25;7.75;;;;;;;15.65;61.96;102038.34;5027876;28;20393;-68
2023/06/06 06:14:02;;;;;;;12.15;7.35;;;;;;;15.43;61.46;102037.66;5011239;28;20493;-68
2023/06/06 06:16:28;;;;;;;15.68;7.28;;;;;;;15.88;61.33;102034.50;4995135;28;20036;-67
2023/06/06 06:18:53;;;;;;;9.48;6.10;;;;;;;16.05;61.03;102030.06;4995017;28;20030;-68
2023/06/06 06:21:19;;;;;;;12.05;6.60;;;;;;;15.85;61.06;102039.97;5012465;28;20022;-66
2023/06/06 06:23:45;;;;;;;13.73;6.07;;;;;;;15.85;61.81;102043.50;5021914;28;20025;-68
2023/06/06 06:26:10;;;;;;;13.23;6.28;;;;;;;16.05;61.01;102036.28;5006442;28;20060;-67
2023/06/06 06:28:36;;;;;;;9.55;5.90;;;;;;;16.47;57.58;102040.19;4995329;28;20034;-67
2023/06/06 06:31:01;;;;;;;9.27;5.85;;;;;;;16.05;59.34;102040.75;5000141;28;20081;-68
2023/06/06 06:33:27;;;;;;;15.60;6.43;;;;;;;16.23;59.52;102050.41;5012456;28;20041;-68
2023/06/06 06:35:53;;;;;;;11.98;6.68;;;;;;;16.24;59.87;102041.47;4995379;28;20499;-68
2023/06/06 06:38:18;;;;;;;10.48;5.60;;;;;;;16.38;58.82;102047.88;5010913;28;20145;-67
2023/06/06 06:40:43;;;;;;;16.23;6.60;;;;;;;16.47;58.75;102040.19;5011261;28;20057;-70
2023/06/06 06:43:09;;;;;;;13.32;6.90;;;;;;;16.47;58.65;102053.53;5012266;28;20022;-68
2023/06/06 06:45:34;;;;;;;11.68;5.75;;;;;;;16.65;58.98;102044.59;5015574;28;20036;-68
2023/06/06 06:48:01;;;;;;;8.55;5.10;;;;;;;16.84;56.93;102041.75;5032331;28;20109;-68
2023/06/06 06:50:26;;;;;;;14.63;7.68;;;;;;;16.84;57.73;102047.94;5032037;28;20397;-67
2023/06/06 06:52:53;;;;;;;11.00;5.18;;;;;;;16.82;56.48;102046.31;5031690;28;20021;-66
2023/06/06 06:55:19;;;;;;;11.18;5.85;;;;;;;17.09;56.56;102046.56;5014446;28;20083;-68
2023/06/06 06:57:44;;;;;;;8.18;5.05;;;;;;;17.57;54.03;102043.75;5012710;28;20116;-67
2023/06/06 07:00:15;;;;;;;10.05;4.63;;;;;;;17.66;51.85;102039.63;5031705;28;20037;-68
2023/06/06 07:02:42;;;;;;;8.80;4.60;;;;;;;17.37;53.75;102047.59;5014990;28;20523;-66
2023/06/06 07:05:09;;;;;;;10.52;4.65;;;;;;;17.54;53.23;102046.59;5012023;28;20069;-68
2023/06/06 07:07:41;;;;;;;7.50;4.15;;;;;;;17.87;52.47;102050.00;5016176;28;20048;-67
2023/06/06 07:10:07;;;;;;;10.82;4.55;;;;;;;17.50;53.69;102050.41;5010770;28;20033;-68
2023/06/06 07:12:32;;;;;;;9.65;4.75;;;;;;;17.67;54.42;102048.53;4997636;28;20141;-67
2023/06/06 07:14:57;;;;;;;11.93;5.60;;;;;;;17.87;53.20;102050.00;5014048;28;20056;-66
2023/06/06 07:17:25;;;;;;;7.70;4.35;;;;;;;17.87;53.23;102050.00;4997635;28;20471;-67
2023/06/06 07:19:50;;;;;;;13.30;4.85;;;;;;;18.00;52.74;102045.63;5015612;28;20026;-67
2023/06/06 07:22:15;;;;;;;8.98;4.22;;;;;;;18.43;51.26;102041.16;4997806;28;20033;-67
2023/06/06 07:24:41;;;;;;;7.18;4.10;;;;;;;18.67;50.35;102040.56;4999276;28;20026;-67
2023/06/06 07:27:08;;;;;;;7.88;4.15;;;;;;;18.32;52.00;102041.88;5015301;28;20108;-67
2023/06/06 07:29:34;;;;;;;7.28;3.92;;;;;;;18.77;50.19;102039.84;4998484;28;20141;-67
2023/06/06 07:31:59;;;;;;;8.27;4.20;;;;;;;18.81;49.52;102043.19;5015117;28;20026;-66
2023/06/06 07:34:25;;;;;;;11.70;4.70;;;;;;;18.67;50.08;102040.56;5013750;28;20033;-66
2023/06/06 07:36:50;;;;;;;7.53;4.20;;;;;;;18.68;49.08;102036.91;4997541;28;20056;-67
2023/06/06 07:39:15;;;;;;;7.70;4.63;;;;;;;18.53;50.02;102036.94;5014741;28;20061;-67
2023/06/06 07:41:41;;;;;;;8.65;4.28;;;;;;;18.79;50.76;102037.91;4997288;28;20124;-68
2023/06/06 07:44:06;;;;;;;9.85;4.68;;;;;;;18.89;49.80;102034.63;4981409;28;20524;-67
2023/06/06 07:46:32;;;;;;;10.45;4.28;;;;;;;19.60;48.36;102039.75;5002957;28;20140;-68
2023/06/06 07:48:58;;;;;;;7.90;4.22;;;;;;;19.13;49.86;102034.84;5017151;28;20034;-67
2023/06/06 07:51:23;;;;;;;7.82;4.07;;;;;;;19.20;49.14;102036.13;5017057;28;20546;-68
2023/06/06 07:53:49;;;;;;;7.45;4.32;;;;;;;19.55;47.46;102032.00;5019253;28;20032;-68
2023/06/06 07:56:15;;;;;;;5.82;3.38;;;;;;;19.90;45.88;102030.53;5014634;28;20486;-67
2023/06/06 07:58:41;;;;;;;8.25;3.60;;;;;;;19.44;48.06;102027.41;5034433;28;20091;-68
2023/06/06 08:01:09;;;;;;;6.55;3.45;;;;;;;19.88;45.72;102029.75;5034365;28;20029;-67
2023/06/06 08:03:34;;;;;;;5.53;3.85;;;;;;;20.29;44.34;102030.47;5027675;28;20061;-66
2023/06/06 08:05:59;;;;;;;6.05;4.60;;;;;;;20.09;44.36;102033.66;5013424;28;20028;-68
2023/06/06 08:08:26;;;;;;;6.35;4.07;;;;;;;20.37;43.32;102026.28;4997192;28;20042;-70
2023/06/06 08:10:52;;;;;;;7.95;3.88;;;;;;;20.18;44.75;102032.13;5021248;28;20442;-67
2023/06/06 08:13:21;;;;;;;8.95;3.97;;;;;;;20.06;45.13;102028.47;5006385;28;20029;-68
2023/06/06 08:15:47;;;;;;;7.28;3.78;;;;;;;20.28;44.64;102024.25;5010959;28;20525;-68
2023/06/06 08:18:15;;;;;;;7.95;3.53;;;;;;;20.37;44.01;102022.72;4996174;28;20112;-67
2023/06/06 08:20:41;;;;;;;7.18;4.07;;;;;;;20.22;42.75;102022.00;5013032;28;20028;-68
2023/06/06 08:23:06;;;;;;;8.25;4.10;;;;;;;20.44;43.36;102020.44;4997117;28;20466;-68
2023/06/06 08:25:33;;;;;;;6.93;3.20;;;;;;;20.92;40.79;102019.63;4980442;28;20017;-67
2023/06/06 08:28:01;;;;;;;7.03;3.10;;;;;;;20.74;41.15;102021.81;4996719;28;20017;-71
2023/06/06 08:30:27;;;;;;;8.90;3.72;;;;;;;20.94;41.56;102023.94;5021437;28;20036;-68
2023/06/06 08:32:52;;;;;;;7.15;3.30;;;;;;;21.13;40.07;102017.13;5019180;28;20069;-68
2023/06/06 08:35:19;;;;;;;4.78;2.92;;;;;;;20.91;39.41;102024.16;5012334;28;20037;-68
2023/06/06 08:37:45;;;;;;;7.03;3.83;;;;;;;21.18;40.07;102020.34;5015892;28;20418;-68
2023/06/06 08:40:11;;;;;;;4.68;3.30;;;;;;;20.97;40.37;102023.69;5015909;28;20029;-68
2023/06/06 08:42:42;;;;;;;6.28;3.15;;;;;;;21.37;38.93;102013.53;5015636;28;20100;-68
2023/06/06 08:45:08;;;;;;;7.18;2.85;;;;;;;21.68;38.83;102005.78;5015489;28;20032;-67
2023/06/06 08:47:34;;;;;;;6.78;3.25;;;;;;;21.72;38.29;102012.66;5015549;28;20474;-68
2023/06/06 08:50:00;;;;;;;5.70;3.15;;;;;;;22.02;37.04;102003.09;5015912;28;20021;-70
2023/06/06 08:52:27;;;;;;;7.75;3.17;;;;;;;21.70;37.61;102009.22;5004378;28;20033;-67
2023/06/06 08:54:53;;;;;;;5.68;2.90;;;;;;;21.85;36.64;102007.13;5015945;28;20075;-68
2023/06/06 08:57:19;;;;;;;7.40;3.40;;;;;;;21.67;37.28;102001.38;5015920;28;20025;-68
2023/06/06 08:59:45;;;;;;;7.13;4.07;;;;;;;21.81;37.50;101995.75;5015734;28;20033;-68
2023/06/06 09:02:10;;;;;;;7.47;3.38;;;;;;;22.48;36.26;101997.66;5011404;28;20394;-67
2023/06/06 09:04:36;;;;;;;5.75;2.90;;;;;;;22.43;36.90;102006.09;5012580;28;20030;-67
2023/06/06 09:07:04;;;;;;;6.47;3.05;;;;;;;22.48;35.55;102003.06;4996104;28;20026;-68
2023/06/06 09:09:31;;;;;;;5.28;3.20;;;;;;;22.09;37.21;101998.91;5029031;28;20113;-68
2023/06/06 09:11:57;;;;;;;6.32;3.00;;;;;;;22.00;36.87;102005.03;4995772;28;20479;-68
2023/06/06 09:14:22;;;;;;;6.03;2.85;;;;;;;22.00;36.27;101996.97;5011949;28;20104;-69
2023/06/06 09:16:51;;;;;;;6.40;2.95;;;;;;;21.99;36.33;102001.50;5013713;28;20017;-68
2023/06/06 09:19:16;;;;;;;11.48;3.58;;;;;;;22.28;35.51;102005.50;4995767;28;20026;-68
2023/06/06 09:21:41;;;;;;;4.65;2.97;;;;;;;22.11;36.58;101999.63;5019929;28;20033;-68
2023/06/06 09:24:07;;;;;;;5.20;3.30;;;;;;;22.14;36.84;102002.09;4995591;28;20041;-69
2023/06/06 09:26:33;;;;;;;5.22;3.10;;;;;;;22.74;36.06;102002.72;4979210;28;20099;-67
2023/06/06 09:29:07;;;;;;;5.95;3.00;;;;;;;22.30;36.30;101994.59;4979188;28;20032;-68
2023/06/06 09:31:39;;;;;;;5.57;3.10;;;;;;;22.79;35.53;102003.19;4995778;28;20033;-67
2023/06/06 09:34:07;;;;;;;6.88;3.17;;;;;;;22.90;35.20;101997.72;5012835;28;20030;-69
2023/06/06 09:36:33;;;;;;;8.85;3.58;;;;;;;22.70;35.92;102000.28;4995368;28;20057;-68
2023/06/06 09:39:08;;;;;;;7.80;3.00;;;;;;;22.46;36.29;102005.88;5012822;28;20549;-66
2023/06/06 09:41:41;;;;;;;5.38;2.85;;;;;;;22.73;35.25;101995.59;5009099;28;20096;-68
2023/06/06 09:44:18;;;;;;;5.03;2.90;;;;;;;22.59;35.01;101997.63;5032775;28;20029;-68
2023/06/06 09:46:43;;;;;;;8.32;4.35;;;;;;;22.59;35.02;101988.66;5014874;28;20385;-67
2023/06/06 09:49:10;;;;;;;8.88;4.20;;;;;;;22.73;34.87;101990.22;5032347;28;20108;-68
2023/06/06 09:51:40;;;;;;;6.30;3.05;;;;;;;22.98;34.68;101989.84;5012417;28;20116;-68
2023/06/06 09:54:08;;;;;;;6.80;2.72;;;;;;;23.20;34.02;101982.63;5012710;28;20109;-68
2023/06/06 09:56:38;;;;;;;6.40;3.15;;;;;;;23.22;33.84;101988.75;5032692;28;20109;-68
2023/06/06 09:59:04;;;;;;;7.63;3.00;;;;;;;23.32;33.01;101988.00;4995601;28;20466;-67
2023/06/06 10:01:32;;;;;;;7.10;3.47;;;;;;;22.89;33.92;101982.53;4995300;28;20034;-68
2023/06/06 10:03:58;;;;;;;7.28;2.88;;;;;;;23.33;33.49;101982.44;5012652;28;20455;-69
2023/06/06 10:06:26;;;;;;;5.78;3.20;;;;;;;22.76;33.35;101979.16;4994844;28;20025;-68
2023/06/06 10:08:56;;;;;;;6.47;3.13;;;;;;;22.85;34.15;101968.47;4979038;28;20033;-67
2023/06/06 10:11:22;;;;;;;3.63;2.50;;;;;;;23.19;33.48;101974.66;4995549;28;20522;-68
2023/06/06 10:13:51;;;;;;;10.75;3.22;;;;;;;23.66;33.07;101971.53;4995162;28;20109;-68
2023/06/06 10:16:17;;;;;;;8.00;3.50;;;;;;;23.25;33.50;101972.31;4995020;28;20445;-67
2023/06/06 10:18:46;;;;;;;6.40;3.00;;;;;;;23.57;33.99;101981.31;4994708;28;20053;-68
2023/06/06 10:21:13;;;;;;;24.38;5.38;;;;;;;23.43;33.57;101971.69;4979006;28;20109;-68
2023/06/06 10:23:39;;;;;;;5.63;3.25;;;;;;;23.85;33.10;101966.19;4994952;28;20041;-67
2023/06/06 10:26:05;;;;;;;5.75;3.28;;;;;;;23.79;33.71;101977.53;4978673;28;20375;-68
2023/06/06 10:28:33;;;;;;;4.38;3.08;;;;;;;23.32;34.03;101977.19;4978365;28;20033;-69
2023/06/06 10:31:15;;;;;;;5.88;3.53;;;;;;;23.77;33.32;101966.03;4994492;28;20037;-69
2023/06/06 10:34:14;;;;;;;9.35;3.22;;;;;;;23.75;34.12;101964.47;4994401;28;20018;-68
2023/06/06 10:36:43;;;;;;;14.18;4.25;;;;;;;24.29;32.77;101962.34;4976638;28;20026;-68
2023/06/06 10:39:18;;;;;;;5.00;3.03;;;;;;;23.57;33.55;101963.25;4995092;28;20464;-69
2023/06/06 10:42:06;;;;;;;13.10;3.80;;;;;;;24.52;31.90;101957.56;4995352;28;20021;-68
2023/06/06 10:44:36;;;;;;;6.47;3.42;;;;;;;23.90;33.03;101956.84;4981961;28;20053;-68
2023/06/06 10:47:20;;;;;;;8.20;3.35;;;;;;;24.36;32.30;101958.09;4998214;28;20475;-68
2023/06/06 10:52:54;;;;;;;9.15;3.90;;;;;;;23.98;32.43;101965.13;5015868;28;20037;-68
2023/06/06 10:55:22;;;;;;;5.03;3.00;;;;;;;24.19;32.05;101951.50;4982508;28;20026;-68
2023/06/06 10:58:10;;;;;;;6.32;2.90;;;;;;;24.89;31.10;101948.72;4998510;28;20022;-68
2023/06/06 11:00:39;;;;;;;6.05;3.33;;;;;;;24.93;31.49;101957.44;4998196;28;20038;-68
2023/06/06 11:03:05;;;;;;;5.28;3.10;;;;;;;24.71;32.04;101945.88;5015600;28;20029;-69
2023/06/06 11:05:31;;;;;;;7.82;3.28;;;;;;;24.41;32.36;101952.28;4997859;28;20435;-69
2023/06/06 11:08:03;;;;;;;6.85;3.08;;;;;;;25.11;32.04;101948.56;5015637;28;20065;-68
2023/06/06 11:10:45;;;;;;;6.78;3.05;;;;;;;25.67;30.65;101944.13;4998459;28;20026;-69
2023/06/06 11:13:25;;;;;;;6.82;3.65;;;;;;;24.78;32.48;101948.03;5014918;28;20026;-68
2023/06/06 11:15:56;;;;;;;6.53;2.88;;;;;;;25.58;30.58;101945.00;4998432;28;20537;-68
2023/06/06 11:18:40;;;;;;;4.65;3.22;;;;;;;24.90;31.16;101938.78;5015490;28;20454;-67
2023/06/06 11:21:05;;;;;;;4.53;2.72;;;;;;;24.42;32.28;101945.88;4998323;28;20141;-67
2023/06/06 11:23:41;;;;;;;6.32;2.90;;;;;;;25.22;31.35;101934.00;4997846;28;20807;-68
2023/06/06 11:26:09;;;;;;;6.82;3.70;;;;;;;25.08;31.79;101940.72;4997150;28;20030;-68